sensor_id;sensor_type;location;lat;lon;timestamp;pressure;altitude;pressure_sealevel;temperature;humidity
76126;BME280;65174;48.138;21.002;2024-03-08T00:01:45;64582.16;;;-140.13;100.00
76126;BME280;65174;48.138;21.002;2024-03-08T00:04:48;64582.16;;;-140.13;100.00
76126;BME280;65174;48.138;21.002;2024-03-08T00:07:50;64582.16;;;-140.13;100.00
76126;BME280;65174;48.138;21.002;2024-03-08T00:10:52;64582.16;;;-140.13;100.00
76126;BME280;65174;48.138;21.002;2024-03-08T00:13:54;64582.16;;;-140.13;100.00
76126;BME280;65174;48.138;21.002;2024-03-08T00:16:56;64582.16;;;-140.13;100.00
76126;BME280;65174;48.138;21.002;2024-03-08T00:19:58;64582.16;;;-140.13;100.00
76126;BME280;65174;48.138;21.002;2024-03-08T00:23:00;64582.16;;;-140.13;100.00
76126;BME280;65174;48.138;21.002;2024-03-08T00:26:03;64582.16;;;-140.13;100.00
76126;BME280;65174;48.138;21.002;2024-03-08T00:29:05;64582.16;;;-140.13;100.00
76126;BME280;65174;48.138;21.002;2024-03-08T00:32:09;64582.16;;;-140.13;100.00
76126;BME280;65174;48.138;21.002;2024-03-08T00:35:12;64582.16;;;-140.13;100.00
76126;BME280;65174;48.138;21.002;2024-03-08T00:38:21;64582.16;;;-140.13;100.00
76126;BME280;65174;48.138;21.002;2024-03-08T00:41:23;64582.16;;;-140.13;100.00
76126;BME280;65174;48.138;21.002;2024-03-08T00:44:28;64582.16;;;-140.13;100.00
76126;BME280;65174;48.138;21.002;2024-03-08T00:47:30;64582.16;;;-140.13;100.00
76126;BME280;65174;48.138;21.002;2024-03-08T00:50:32;64582.16;;;-140.13;100.00
76126;BME280;65174;48.138;21.002;2024-03-08T00:53:35;64582.16;;;-140.13;100.00
76126;BME280;65174;48.138;21.002;2024-03-08T00:56:38;64582.16;;;-140.13;100.00
76126;BME280;65174;48.138;21.002;2024-03-08T00:59:41;64582.16;;;-140.13;100.00
76126;BME280;65174;48.138;21.002;2024-03-08T01:02:43;64582.16;;;-140.13;100.00
76126;BME280;65174;48.138;21.002;2024-03-08T01:05:45;64582.16;;;-140.13;100.00
76126;BME280;65174;48.138;21.002;2024-03-08T01:08:47;64582.16;;;-140.13;100.00
76126;BME280;65174;48.138;21.002;2024-03-08T01:11:49;64582.16;;;-140.13;100.00
76126;BME280;65174;48.138;21.002;2024-03-08T01:14:52;64582.16;;;-140.13;100.00
76126;BME280;65174;48.138;21.002;2024-03-08T01:17:54;64582.16;;;-140.13;100.00
76126;BME280;65174;48.138;21.002;2024-03-08T01:20:56;64582.16;;;-140.13;100.00
76126;BME280;65174;48.138;21.002;2024-03-08T01:24:00;64582.16;;;-140.13;100.00
76126;BME280;65174;48.138;21.002;2024-03-08T01:27:02;64582.16;;;-140.13;100.00
76126;BME280;65174;48.138;21.002;2024-03-08T01:30:05;64582.16;;;-140.13;100.00
76126;BME280;65174;48.138;21.002;2024-03-08T01:33:07;64582.16;;;-140.13;100.00
76126;BME280;65174;48.138;21.002;2024-03-08T01:36:09;64582.16;;;-140.13;100.00
76126;BME280;65174;48.138;21.002;2024-03-08T01:39:11;64582.16;;;-140.13;100.00
76126;BME280;65174;48.138;21.002;2024-03-08T01:42:13;64582.16;;;-140.13;100.00
76126;BME280;65174;48.138;21.002;2024-03-08T01:45:17;64582.16;;;-140.13;100.00
76126;BME280;65174;48.138;21.002;2024-03-08T01:48:20;64582.16;;;-140.13;100.00
76126;BME280;65174;48.138;21.002;2024-03-08T01:51:25;64582.16;;;-140.13;100.00
76126;BME280;65174;48.138;21.002;2024-03-08T01:54:28;64582.16;;;-140.13;100.00
76126;BME280;65174;48.138;21.002;2024-03-08T01:57:32;64582.16;;;-140.13;100.00
76126;BME280;65174;48.138;21.002;2024-03-08T02:00:36;64582.16;;;-140.13;100.00
76126;BME280;65174;48.138;21.002;2024-03-08T02:03:42;64582.16;;;-140.13;100.00
76126;BME280;65174;48.138;21.002;2024-03-08T02:06:47;64582.16;;;-140.13;100.00
76126;BME280;65174;48.138;21.002;2024-03-08T02:09:50;64582.16;;;-140.13;100.00
76126;BME280;65174;48.138;21.002;2024-03-08T02:12:52;64582.16;;;-140.13;100.00
76126;BME280;65174;48.138;21.002;2024-03-08T02:15:55;64582.16;;;-140.13;100.00
76126;BME280;65174;48.138;21.002;2024-03-08T02:18:58;64582.16;;;-140.13;100.00
76126;BME280;65174;48.138;21.002;2024-03-08T02:22:00;64582.16;;;-140.13;100.00
76126;BME280;65174;48.138;21.002;2024-03-08T02:25:04;64582.16;;;-140.13;100.00
76126;BME280;65174;48.138;21.002;2024-03-08T02:28:09;64582.16;;;-140.13;100.00
76126;BME280;65174;48.138;21.002;2024-03-08T02:31:12;64582.16;;;-140.13;100.00
76126;BME280;65174;48.138;21.002;2024-03-08T02:34:14;64582.16;;;-140.13;100.00
76126;BME280;65174;48.138;21.002;2024-03-08T02:37:17;64582.16;;;-140.13;100.00
76126;BME280;65174;48.138;21.002;2024-03-08T02:40:19;64582.16;;;-140.13;100.00
76126;BME280;65174;48.138;21.002;2024-03-08T02:43:22;64582.16;;;-140.13;100.00
76126;BME280;65174;48.138;21.002;2024-03-08T02:46:25;64582.16;;;-140.13;100.00
76126;BME280;65174;48.138;21.002;2024-03-08T02:49:27;64582.16;;;-140.13;100.00
76126;BME280;65174;48.138;21.002;2024-03-08T02:52:29;64582.16;;;-140.13;100.00
76126;BME280;65174;48.138;21.002;2024-03-08T02:55:31;64582.16;;;-140.13;100.00
76126;BME280;65174;48.138;21.002;2024-03-08T02:58:35;64582.16;;;-140.13;100.00
76126;BME280;65174;48.138;21.002;2024-03-08T03:01:37;64582.16;;;-140.13;100.00
76126;BME280;65174;48.138;21.002;2024-03-08T03:04:40;64582.16;;;-140.13;100.00
76126;BME280;65174;48.138;21.002;2024-03-08T03:07:42;64582.16;;;-140.13;100.00
76126;BME280;65174;48.138;21.002;2024-03-08T03:10:44;64582.16;;;-140.13;100.00
76126;BME280;65174;48.138;21.002;2024-03-08T03:13:46;64582.16;;;-140.13;100.00
76126;BME280;65174;48.138;21.002;2024-03-08T03:16:50;64582.16;;;-140.13;100.00
76126;BME280;65174;48.138;21.002;2024-03-08T03:19:52;64582.16;;;-140.13;100.00
76126;BME280;65174;48.138;21.002;2024-03-08T03:22:54;64582.16;;;-140.13;100.00
76126;BME280;65174;48.138;21.002;2024-03-08T03:25:58;64582.16;;;-140.13;100.00
76126;BME280;65174;48.138;21.002;2024-03-08T03:29:01;64582.16;;;-140.13;100.00
76126;BME280;65174;48.138;21.002;2024-03-08T03:32:05;64582.16;;;-140.13;100.00
76126;BME280;65174;48.138;21.002;2024-03-08T03:35:07;64582.16;;;-140.13;100.00
76126;BME280;65174;48.138;21.002;2024-03-08T03:38:09;64582.16;;;-140.13;100.00
76126;BME280;65174;48.138;21.002;2024-03-08T03:41:12;64582.16;;;-140.13;100.00
76126;BME280;65174;48.138;21.002;2024-03-08T03:44:16;64582.16;;;-140.13;100.00
76126;BME280;65174;48.138;21.002;2024-03-08T03:47:18;64582.16;;;-140.13;100.00
76126;BME280;65174;48.138;21.002;2024-03-08T03:50:20;64582.16;;;-140.13;100.00
76126;BME280;65174;48.138;21.002;2024-03-08T03:53:23;64582.16;;;-140.13;100.00
76126;BME280;65174;48.138;21.002;2024-03-08T03:56:27;64582.16;;;-140.13;100.00
76126;BME280;65174;48.138;21.002;2024-03-08T03:59:29;64582.16;;;-140.13;100.00
76126;BME280;65174;48.138;21.002;2024-03-08T04:02:31;64582.16;;;-140.13;100.00
76126;BME280;65174;48.138;21.002;2024-03-08T04:05:33;64582.16;;;-140.13;100.00
76126;BME280;65174;48.138;21.002;2024-03-08T04:08:36;64582.16;;;-140.13;100.00
76126;BME280;65174;48.138;21.002;2024-03-08T04:11:39;64582.16;;;-140.13;100.00
76126;BME280;65174;48.138;21.002;2024-03-08T04:14:42;64582.16;;;-140.13;100.00
76126;BME280;65174;48.138;21.002;2024-03-08T04:17:44;64582.16;;;-140.13;100.00
76126;BME280;65174;48.138;21.002;2024-03-08T04:20:48;64582.16;;;-140.13;100.00
76126;BME280;65174;48.138;21.002;2024-03-08T04:23:50;64582.16;;;-140.13;100.00
76126;BME280;65174;48.138;21.002;2024-03-08T04:26:52;64582.16;;;-140.13;100.00
76126;BME280;65174;48.138;21.002;2024-03-08T04:29:54;64582.16;;;-140.13;100.00
76126;BME280;65174;48.138;21.002;2024-03-08T04:32:56;64582.16;;;-140.13;100.00
76126;BME280;65174;48.138;21.002;2024-03-08T04:35:59;64582.16;;;-140.13;100.00
76126;BME280;65174;48.138;21.002;2024-03-08T04:39:01;64582.16;;;-140.13;100.00
76126;BME280;65174;48.138;21.002;2024-03-08T04:42:04;64582.16;;;-140.13;100.00
76126;BME280;65174;48.138;21.002;2024-03-08T04:45:08;64582.16;;;-140.13;100.00
76126;BME280;65174;48.138;21.002;2024-03-08T04:48:13;64582.16;;;-140.13;100.00
76126;BME280;65174;48.138;21.002;2024-03-08T04:51:15;64582.16;;;-140.13;100.00
76126;BME280;65174;48.138;21.002;2024-03-08T04:54:17;64582.16;;;-140.13;100.00
76126;BME280;65174;48.138;21.002;2024-03-08T04:57:19;64582.16;;;-140.13;100.00
76126;BME280;65174;48.138;21.002;2024-03-08T05:00:21;64582.16;;;-140.13;100.00
76126;BME280;65174;48.138;21.002;2024-03-08T05:03:23;64582.16;;;-140.13;100.00
76126;BME280;65174;48.138;21.002;2024-03-08T05:06:28;64582.16;;;-140.13;100.00
76126;BME280;65174;48.138;21.002;2024-03-08T05:09:31;64582.16;;;-140.13;100.00
76126;BME280;65174;48.138;21.002;2024-03-08T05:12:34;64582.16;;;-140.13;100.00
76126;BME280;65174;48.138;21.002;2024-03-08T05:15:36;64582.16;;;-140.13;100.00
76126;BME280;65174;48.138;21.002;2024-03-08T05:18:41;64582.16;;;-140.13;100.00
76126;BME280;65174;48.138;21.002;2024-03-08T05:21:44;64582.16;;;-140.13;100.00
76126;BME280;65174;48.138;21.002;2024-03-08T05:24:47;64582.16;;;-140.13;100.00
76126;BME280;65174;48.138;21.002;2024-03-08T05:27:49;64582.16;;;-140.13;100.00
76126;BME280;65174;48.138;21.002;2024-03-08T05:30:50;64582.16;;;-140.13;100.00
76126;BME280;65174;48.138;21.002;2024-03-08T05:33:52;64582.16;;;-140.13;100.00
76126;BME280;65174;48.138;21.002;2024-03-08T05:36:57;64582.16;;;-140.13;100.00
76126;BME280;65174;48.138;21.002;2024-03-08T05:40:00;64582.16;;;-140.13;100.00
76126;BME280;65174;48.138;21.002;2024-03-08T05:43:02;64582.16;;;-140.13;100.00
76126;BME280;65174;48.138;21.002;2024-03-08T05:46:04;64582.16;;;-140.13;100.00
76126;BME280;65174;48.138;21.002;2024-03-08T05:49:06;64582.16;;;-140.13;100.00
76126;BME280;65174;48.138;21.002;2024-03-08T05:52:09;64582.16;;;-140.13;100.00
76126;BME280;65174;48.138;21.002;2024-03-08T05:55:11;64582.16;;;-140.13;100.00
76126;BME280;65174;48.138;21.002;2024-03-08T05:58:15;64582.16;;;-140.13;100.00
76126;BME280;65174;48.138;21.002;2024-03-08T06:01:18;64582.16;;;-140.13;100.00
76126;BME280;65174;48.138;21.002;2024-03-08T06:04:20;64582.16;;;-140.13;100.00
76126;BME280;65174;48.138;21.002;2024-03-08T06:07:22;64582.16;;;-140.13;100.00
76126;BME280;65174;48.138;21.002;2024-03-08T06:10:24;64582.16;;;-140.13;100.00
76126;BME280;65174;48.138;21.002;2024-03-08T06:13:26;64582.16;;;-140.13;100.00
76126;BME280;65174;48.138;21.002;2024-03-08T06:16:31;64582.16;;;-140.13;100.00
76126;BME280;65174;48.138;21.002;2024-03-08T06:19:35;64582.16;;;-140.13;100.00
76126;BME280;65174;48.138;21.002;2024-03-08T06:22:38;64582.16;;;-140.13;100.00
76126;BME280;65174;48.138;21.002;2024-03-08T06:25:46;64582.16;;;-140.13;100.00
76126;BME280;65174;48.138;21.002;2024-03-08T06:28:48;64582.16;;;-140.13;100.00
76126;BME280;65174;48.138;21.002;2024-03-08T06:31:50;64582.16;;;-140.13;100.00
76126;BME280;65174;48.138;21.002;2024-03-08T06:34:54;64582.16;;;-140.13;100.00
76126;BME280;65174;48.138;21.002;2024-03-08T06:37:56;64582.16;;;-140.13;100.00
76126;BME280;65174;48.138;21.002;2024-03-08T06:40:58;64582.16;;;-140.13;100.00
76126;BME280;65174;48.138;21.002;2024-03-08T06:44:00;64582.16;;;-140.13;100.00
76126;BME280;65174;48.138;21.002;2024-03-08T06:47:02;64582.16;;;-140.13;100.00
76126;BME280;65174;48.138;21.002;2024-03-08T06:50:05;64582.16;;;-140.13;100.00
76126;BME280;65174;48.138;21.002;2024-03-08T06:53:07;64582.16;;;-140.13;100.00
76126;BME280;65174;48.138;21.002;2024-03-08T06:56:09;64582.16;;;-140.13;100.00
76126;BME280;65174;48.138;21.002;2024-03-08T07:25:24;64582.16;;;-140.13;100.00
76126;BME280;65174;48.138;21.002;2024-03-08T07:28:31;64582.16;;;-140.13;100.00
76126;BME280;65174;48.138;21.002;2024-03-08T07:31:33;64582.16;;;-140.13;100.00
76126;BME280;65174;48.138;21.002;2024-03-08T07:34:44;64582.16;;;-140.13;100.00
76126;BME280;65174;48.138;21.002;2024-03-08T07:37:48;64582.16;;;-140.13;100.00
76126;BME280;65174;48.138;21.002;2024-03-08T07:41:00;64582.16;;;-140.13;100.00
76126;BME280;65174;48.138;21.002;2024-03-08T07:44:12;64582.16;;;-140.13;100.00
76126;BME280;65174;48.138;21.002;2024-03-08T07:47:19;99261.94;;;-140.13;100.00
76126;BME280;65174;48.138;21.002;2024-03-08T08:29:42;76853.09;;;-140.13;100.00
76126;BME280;65174;48.138;21.002;2024-03-08T08:32:44;99261.94;;;8.86;100.00
76126;BME280;65174;48.138;21.002;2024-03-08T08:35:48;64582.16;;;20.75;100.00
76126;BME280;65174;48.138;21.002;2024-03-08T08:38:53;64582.16;;;-140.13;100.00
76126;BME280;65174;48.138;21.002;2024-03-08T08:42:00;99261.94;;;-139.73;100.00
76126;BME280;65174;48.138;21.002;2024-03-08T08:45:02;99261.94;;;8.86;100.00
76126;BME280;65174;48.138;21.002;2024-03-08T08:48:16;64582.16;;;-140.13;100.00
76126;BME280;65174;48.138;21.002;2024-03-08T08:51:18;64582.16;;;-140.13;100.00
76126;BME280;65174;48.138;21.002;2024-03-08T08:54:21;64582.16;;;-140.13;100.00
76126;BME280;65174;48.138;21.002;2024-03-08T08:57:23;64582.16;;;-140.13;100.00
76126;BME280;65174;48.138;21.002;2024-03-08T09:00:25;99261.94;;;8.86;100.00
76126;BME280;65174;48.138;21.002;2024-03-08T09:03:29;99261.94;;;8.86;100.00
76126;BME280;65174;48.138;21.002;2024-03-08T09:06:32;99261.94;;;8.86;100.00
76126;BME280;65174;48.138;21.002;2024-03-08T09:09:34;99261.94;;;8.86;100.00
76126;BME280;65174;48.138;21.002;2024-03-08T09:12:36;99261.94;;;8.86;100.00
76126;BME280;65174;48.138;21.002;2024-03-08T09:15:38;99261.94;;;8.86;100.00
76126;BME280;65174;48.138;21.002;2024-03-08T09:18:42;99261.94;;;8.86;100.00
76126;BME280;65174;48.138;21.002;2024-03-08T09:21:44;99261.94;;;-140.13;100.00
76126;BME280;65174;48.138;21.002;2024-03-08T09:24:45;99261.94;;;8.86;100.00
76126;BME280;65174;48.138;21.002;2024-03-08T09:27:48;99261.94;;;-140.13;100.00
76126;BME280;65174;48.138;21.002;2024-03-08T09:30:51;99261.94;;;8.86;100.00
76126;BME280;65174;48.138;21.002;2024-03-08T09:34:01;99261.94;;;8.86;100.00
76126;BME280;65174;48.138;21.002;2024-03-08T09:37:03;99261.94;;;8.86;100.00
76126;BME280;65174;48.138;21.002;2024-03-08T09:40:06;99261.94;;;8.86;100.00
76126;BME280;65174;48.138;21.002;2024-03-08T09:43:14;99261.94;;;8.86;100.00
76126;BME280;65174;48.138;21.002;2024-03-08T09:46:20;99261.94;;;-140.13;100.00
76126;BME280;65174;48.138;21.002;2024-03-08T09:49:27;99261.94;;;8.86;100.00
76126;BME280;65174;48.138;21.002;2024-03-08T09:52:31;99261.94;;;8.86;100.00
76126;BME280;65174;48.138;21.002;2024-03-08T09:55:37;99261.94;;;-140.13;100.00
76126;BME280;65174;48.138;21.002;2024-03-08T09:58:46;99261.94;;;8.86;100.00
76126;BME280;65174;48.138;21.002;2024-03-08T10:02:13;99261.94;;;8.86;100.00
76126;BME280;65174;48.138;21.002;2024-03-08T10:05:19;99261.94;;;8.86;100.00
76126;BME280;65174;48.138;21.002;2024-03-08T10:08:22;99261.94;;;8.86;100.00
76126;BME280;65174;48.138;21.002;2024-03-08T10:11:25;99261.94;;;8.86;100.00
76126;BME280;65174;48.138;21.002;2024-03-08T10:14:28;99261.94;;;8.86;100.00
76126;BME280;65174;48.138;21.002;2024-03-08T10:17:36;99261.94;;;8.86;100.00
76126;BME280;65174;48.138;21.002;2024-03-08T10:20:38;99261.94;;;8.86;100.00
76126;BME280;65174;48.138;21.002;2024-03-08T10:23:41;99261.94;;;8.86;100.00
76126;BME280;65174;48.138;21.002;2024-03-08T10:26:45;99261.94;;;8.86;100.00
76126;BME280;65174;48.138;21.002;2024-03-08T10:29:48;99261.94;;;8.86;100.00
76126;BME280;65174;48.138;21.002;2024-03-08T10:32:50;99261.94;;;8.86;100.00
76126;BME280;65174;48.138;21.002;2024-03-08T10:35:53;99261.94;;;-140.13;100.00
76126;BME280;65174;48.138;21.002;2024-03-08T10:38:59;99261.94;;;8.86;100.00
76126;BME280;65174;48.138;21.002;2024-03-08T10:42:04;99261.94;;;8.86;100.00
76126;BME280;65174;48.138;21.002;2024-03-08T10:45:15;99261.94;;;8.86;100.00
76126;BME280;65174;48.138;21.002;2024-03-08T10:48:29;99261.94;;;8.86;100.00
76126;BME280;65174;48.138;21.002;2024-03-08T10:51:41;99261.94;;;8.86;100.00
76126;BME280;65174;48.138;21.002;2024-03-08T10:54:44;99261.94;;;8.86;100.00
76126;BME280;65174;48.138;21.002;2024-03-08T10:57:49;99261.94;;;8.86;100.00
76126;BME280;65174;48.138;21.002;2024-03-08T11:01:19;99261.94;;;8.86;100.00
76126;BME280;65174;48.138;21.002;2024-03-08T11:04:25;99261.94;;;8.86;100.00
76126;BME280;65174;48.138;21.002;2024-03-08T11:07:28;99261.94;;;8.86;100.00
76126;BME280;65174;48.138;21.002;2024-03-08T11:10:30;99261.94;;;8.86;100.00
76126;BME280;65174;48.138;21.002;2024-03-08T11:16:39;99261.94;;;8.86;100.00
76126;BME280;65174;48.138;21.002;2024-03-08T11:19:48;99261.94;;;8.86;100.00
76126;BME280;65174;48.138;21.002;2024-03-08T11:23:01;99261.94;;;8.86;100.00
76126;BME280;65174;48.138;21.002;2024-03-08T11:26:20;99261.94;;;8.86;100.00
76126;BME280;65174;48.138;21.002;2024-03-08T11:32:35;99261.94;;;8.86;100.00
76126;BME280;65174;48.138;21.002;2024-03-08T11:35:45;99261.94;;;8.86;100.00
76126;BME280;65174;48.138;21.002;2024-03-08T11:38:56;99261.94;;;8.86;100.00
76126;BME280;65174;48.138;21.002;2024-03-08T11:42:14;80766.19;;;-140.13;100.00
76126;BME280;65174;48.138;21.002;2024-03-08T11:45:16;99261.94;;;-140.13;100.00
76126;BME280;65174;48.138;21.002;2024-03-08T11:48:20;76853.09;;;-140.13;100.00
76126;BME280;65174;48.138;21.002;2024-03-08T12:59:08;99261.94;;;8.86;100.00
76126;BME280;65174;48.138;21.002;2024-03-08T13:02:35;99261.94;;;8.86;100.00
76126;BME280;65174;48.138;21.002;2024-03-08T13:05:40;99261.94;;;-140.13;100.00
76126;BME280;65174;48.138;21.002;2024-03-08T13:08:44;99261.94;;;-140.13;100.00
76126;BME280;65174;48.138;21.002;2024-03-08T13:11:46;99261.94;;;8.86;100.00
76126;BME280;65174;48.138;21.002;2024-03-08T13:14:48;99261.94;;;8.86;100.00
76126;BME280;65174;48.138;21.002;2024-03-08T13:17:51;99261.94;;;-140.13;100.00
76126;BME280;65174;48.138;21.002;2024-03-08T13:20:53;99261.94;;;8.86;100.00
76126;BME280;65174;48.138;21.002;2024-03-08T13:23:56;99261.94;;;-140.13;100.00
76126;BME280;65174;48.138;21.002;2024-03-08T13:27:00;99261.94;;;8.86;100.00
76126;BME280;65174;48.138;21.002;2024-03-08T13:30:02;99261.94;;;-140.13;100.00
76126;BME280;65174;48.138;21.002;2024-03-08T13:33:04;99261.94;;;8.86;100.00
76126;BME280;65174;48.138;21.002;2024-03-08T13:36:08;99261.94;;;8.86;100.00
76126;BME280;65174;48.138;21.002;2024-03-08T13:39:16;99261.94;;;-140.13;100.00
76126;BME280;65174;48.138;21.002;2024-03-08T13:42:18;99261.94;;;8.86;100.00
76126;BME280;65174;48.138;21.002;2024-03-08T13:45:21;99261.94;;;-140.13;100.00
76126;BME280;65174;48.138;21.002;2024-03-08T13:48:26;99261.94;;;8.86;100.00
76126;BME280;65174;48.138;21.002;2024-03-08T13:51:28;99261.94;;;8.86;100.00
76126;BME280;65174;48.138;21.002;2024-03-08T13:54:32;99261.94;;;8.86;100.00
76126;BME280;65174;48.138;21.002;2024-03-08T13:57:34;99261.94;;;8.86;100.00
76126;BME280;65174;48.138;21.002;2024-03-08T14:00:36;99261.94;;;8.86;100.00
76126;BME280;65174;48.138;21.002;2024-03-08T14:03:38;99261.94;;;8.86;100.00
76126;BME280;65174;48.138;21.002;2024-03-08T14:06:43;99261.94;;;-140.13;100.00
76126;BME280;65174;48.138;21.002;2024-03-08T14:09:48;99261.94;;;8.86;100.00
76126;BME280;65174;48.138;21.002;2024-03-08T14:12:50;99261.94;;;8.86;100.00
76126;BME280;65174;48.138;21.002;2024-03-08T14:15:55;99261.94;;;8.86;100.00
76126;BME280;65174;48.138;21.002;2024-03-08T14:18:57;99261.94;;;8.86;100.00
76126;BME280;65174;48.138;21.002;2024-03-08T14:22:05;99261.94;;;-140.13;100.00
76126;BME280;65174;48.138;21.002;2024-03-08T14:25:07;99261.94;;;-140.13;100.00
76126;BME280;65174;48.138;21.002;2024-03-08T14:28:18;99261.94;;;8.86;100.00
76126;BME280;65174;48.138;21.002;2024-03-08T14:31:21;99261.94;;;8.86;100.00
76126;BME280;65174;48.138;21.002;2024-03-08T14:34:27;99261.94;;;-140.13;100.00
76126;BME280;65174;48.138;21.002;2024-03-08T14:37:31;99261.94;;;8.86;100.00
76126;BME280;65174;48.138;21.002;2024-03-08T14:40:33;99261.94;;;-140.13;100.00
76126;BME280;65174;48.138;21.002;2024-03-08T14:43:35;167994.56;;;8.86;100.00
76126;BME280;65174;48.138;21.002;2024-03-08T14:46:38;99261.94;;;8.86;100.00
76126;BME280;65174;48.138;21.002;2024-03-08T14:49:40;99261.94;;;8.86;100.00
76126;BME280;65174;48.138;21.002;2024-03-08T14:52:43;99261.94;;;-140.13;100.00
76126;BME280;65174;48.138;21.002;2024-03-08T14:55:45;99261.94;;;-140.13;100.00
76126;BME280;65174;48.138;21.002;2024-03-08T14:58:49;91725.06;;;8.86;100.00
76126;BME280;65174;48.138;21.002;2024-03-08T15:01:51;100586.47;;;-140.13;100.00
76126;BME280;65174;48.138;21.002;2024-03-08T15:04:53;99261.94;;;-140.13;100.00
76126;BME280;65174;48.138;21.002;2024-03-08T15:07:59;76781.97;;;-140.13;100.00
76126;BME280;65174;48.138;21.002;2024-03-08T15:11:13;99261.94;;;8.86;100.00
76126;BME280;65174;48.138;21.002;2024-03-08T15:14:27;64582.16;;;-140.13;100.00
76126;BME280;65174;48.138;21.002;2024-03-08T15:17:29;64582.16;;;-140.13;100.00
76126;BME280;65174;48.138;21.002;2024-03-08T15:20:31;64582.16;;;-140.13;100.00
76126;BME280;65174;48.138;21.002;2024-03-08T15:23:36;64582.16;;;-140.13;100.00
76126;BME280;65174;48.138;21.002;2024-03-08T15:26:38;64582.16;;;-140.13;100.00
76126;BME280;65174;48.138;21.002;2024-03-08T15:29:40;64582.16;;;-140.13;100.00
76126;BME280;65174;48.138;21.002;2024-03-08T15:32:46;64582.16;;;-140.13;100.00
76126;BME280;65174;48.138;21.002;2024-03-08T15:35:50;64582.16;;;-140.13;100.00
76126;BME280;65174;48.138;21.002;2024-03-08T15:38:59;64582.16;;;-140.13;100.00
76126;BME280;65174;48.138;21.002;2024-03-08T15:42:02;64582.16;;;-140.13;100.00
76126;BME280;65174;48.138;21.002;2024-03-08T15:45:04;64582.16;;;-140.13;100.00
76126;BME280;65174;48.138;21.002;2024-03-08T15:48:07;64582.16;;;-140.13;100.00
76126;BME280;65174;48.138;21.002;2024-03-08T15:51:10;64582.16;;;-140.13;100.00
76126;BME280;65174;48.138;21.002;2024-03-08T15:54:12;64582.16;;;-140.13;100.00
76126;BME280;65174;48.138;21.002;2024-03-08T15:57:14;64582.16;;;-140.13;100.00
76126;BME280;65174;48.138;21.002;2024-03-08T16:00:21;64582.16;;;-140.13;100.00
76126;BME280;65174;48.138;21.002;2024-03-08T16:03:37;64582.16;;;-140.13;100.00
76126;BME280;65174;48.138;21.002;2024-03-08T16:06:39;64582.16;;;-140.13;100.00
76126;BME280;65174;48.138;21.002;2024-03-08T16:09:42;64582.16;;;-140.13;100.00
76126;BME280;65174;48.138;21.002;2024-03-08T16:12:44;64582.16;;;-140.13;100.00
76126;BME280;65174;48.138;21.002;2024-03-08T16:15:47;64582.16;;;-140.13;100.00
76126;BME280;65174;48.138;21.002;2024-03-08T16:18:52;64582.16;;;-140.13;100.00
76126;BME280;65174;48.138;21.002;2024-03-08T16:21:54;64582.16;;;-140.13;100.00
76126;BME280;65174;48.138;21.002;2024-03-08T16:24:56;64582.16;;;-140.13;100.00
76126;BME280;65174;48.138;21.002;2024-03-08T16:27:59;64582.16;;;-140.13;100.00
76126;BME280;65174;48.138;21.002;2024-03-08T16:31:01;64582.16;;;-140.13;100.00
76126;BME280;65174;48.138;21.002;2024-03-08T16:34:06;64582.16;;;-140.13;100.00
76126;BME280;65174;48.138;21.002;2024-03-08T16:37:10;64582.16;;;-140.13;100.00
76126;BME280;65174;48.138;21.002;2024-03-08T16:40:12;64582.16;;;-140.13;100.00
76126;BME280;65174;48.138;21.002;2024-03-08T16:43:17;64582.16;;;-140.13;100.00
76126;BME280;65174;48.138;21.002;2024-03-08T16:46:20;64582.16;;;-140.13;100.00
76126;BME280;65174;48.138;21.002;2024-03-08T16:49:23;64582.16;;;-140.13;100.00
76126;BME280;65174;48.138;21.002;2024-03-08T17:39:20;64582.16;;;-140.13;100.00
76126;BME280;65174;48.138;21.002;2024-03-08T17:42:28;64582.16;;;-140.13;100.00
76126;BME280;65174;48.138;21.002;2024-03-08T17:45:30;64582.16;;;-140.13;100.00
76126;BME280;65174;48.138;21.002;2024-03-08T17:48:34;64582.16;;;-140.13;100.00
76126;BME280;65174;48.138;21.002;2024-03-08T17:51:36;64582.16;;;-140.13;100.00
76126;BME280;65174;48.138;21.002;2024-03-08T17:54:38;64582.16;;;-140.13;100.00
76126;BME280;65174;48.138;21.002;2024-03-08T17:57:42;64582.16;;;-140.13;100.00
76126;BME280;65174;48.138;21.002;2024-03-08T18:00:46;64582.16;;;-140.13;100.00
76126;BME280;65174;48.138;21.002;2024-03-08T18:03:48;64582.16;;;-140.13;100.00
76126;BME280;65174;48.138;21.002;2024-03-08T18:06:52;64582.16;;;-140.13;100.00
76126;BME280;65174;48.138;21.002;2024-03-08T18:09:54;64582.16;;;-140.13;100.00
76126;BME280;65174;48.138;21.002;2024-03-08T18:12:58;64582.16;;;-140.13;100.00
76126;BME280;65174;48.138;21.002;2024-03-08T18:16:00;64582.16;;;-140.13;100.00
76126;BME280;65174;48.138;21.002;2024-03-08T18:19:02;64582.16;;;-140.13;100.00
76126;BME280;65174;48.138;21.002;2024-03-08T18:22:12;64582.16;;;-140.13;100.00
76126;BME280;65174;48.138;21.002;2024-03-08T18:25:14;64582.16;;;-140.13;100.00
76126;BME280;65174;48.138;21.002;2024-03-08T18:28:25;64582.16;;;-140.13;100.00
76126;BME280;65174;48.138;21.002;2024-03-08T18:31:29;64582.16;;;-140.13;100.00
76126;BME280;65174;48.138;21.002;2024-03-08T18:34:32;64582.16;;;-140.13;100.00
76126;BME280;65174;48.138;21.002;2024-03-08T18:37:34;64582.16;;;-140.13;100.00
76126;BME280;65174;48.138;21.002;2024-03-08T18:40:37;64582.16;;;-140.13;100.00